Nearby METAR Reports

 

ENCN - Kristiansand/Kje, Norway
Distance from station: N 17km
Mise à jour: 23/01/2020 18:20
nuageux
nuageux
 Wind from OSO
Vent: OSO 17 km/h
Température: 8°C
Wind Chill: 5°C
Point de rosée: 4°C
Humidité: 76%
Baromètre: 1017 hPa
Clouds: nuageux
Visibility: 10 km
Cloud details: Few Clouds 671 m
nuageux 884 m
2020/01/23 17:20 ENCN 231720Z 25009KT 9999 FEW022 BKN029 08/04 Q1017
EKSN - Sindal Airport, Denmark
Distance from station: ESE 145km
Mise à jour: 23/01/2020 13:50
NOT Current
couvert
couvert
 Wind from O
Vent: O 37 km/h
Température: 8°C
Wind Chill: 3°C
Point de rosée: 8°C
Humidité: 100%
Baromètre: 1022 hPa
Clouds: couvert
Visibility: 8 km
Cloud details: couvert 152 m
2020/01/23 12:50 EKSN 231250Z 26020KT 8000 OVC005 08/08 Q1022
 
EKYT - Alborg, Denmark
Distance from station: SE 153km
Mise à jour: 23/01/2020 18:20
couvert
couvert
 Wind from O
Vent: O 30 km/h
Température: 7°C
Wind Chill: 3°C
Point de rosée: 7°C
Humidité: 100%
Baromètre: 1021 hPa
Clouds: couvert
Visibility: 7 km
Cloud details: nuageux 91 m
couvert 152 m
2020/01/23 17:20 EKYT 231720Z AUTO 26016KT 7000 BKN003/// OVC005/// 07/07 Q1021 TEMPO 3000 BR BKN005
ENSN - Skien/Geiterygge, Norway
Distance from station: NE 153km
Mise à jour: 09/11/2015 09:50
NOT Current
clair
clair
 Wind from SSO
Vent: SSO 19 km/h, Rafale: 41 km/h
Température: 7°C
Wind Chill: 4°C
Point de rosée: 3°C
Humidité: 76%
Baromètre: 1000 hPa
Résumé: clair
Visibility: greater than 10 km
2015/11/09 08:50 ENSN 090850Z 20010G22KT 150V240 CAVOK 07/03 Q1000
 
ENZV - Stavanger/Sola(A, Norway
Distance from station: NO 166km
Mise à jour: 23/01/2020 18:20
nuageux
nuageux
 Wind from OSO
Vent: OSO 19 km/h
Température: 8°C
Wind Chill: 4°C
Point de rosée: 7°C
Humidité: 93%
Baromètre: 1018 hPa
Clouds: nuageux
Visibility: 10 km
Cloud details: Few Clouds 152 m
partiellement nuageux 457 m
nuageux 610 m
2020/01/23 17:20 ENZV 231720Z 25010KT 9999 FEW005 SCT015 BKN020 08/07 Q1018
ENNO - Notodden, Norway
Distance from station: NNE 182km
Mise à jour: 23/01/2020 14:50
NOT Current
Few Clouds
Few Clouds
 Wind from calm
Vent: calme
Température: 0°C
Point de rosée: -2°C
Humidité: 87%
Baromètre: 1015 hPa
Clouds: Few Clouds
Visibility: 10 km
Cloud details: Few Clouds 1280 m
2020/01/23 13:50 ENNO 231350Z 00000KT 9999 FEW042 00/M02 Q1015
 
ENTO - Torp (civ/Nor-Af, Norway
Distance from station: NE 183km
Mise à jour: 23/01/2020 18:20
clair
clair
 Wind from SO
Vent: SO 11 km/h
Température: 6°C
Wind Chill: 4°C
Point de rosée: 3°C
Humidité: 81%
Baromètre: 1013 hPa
Résumé: clair
Visibility: greater than 10 km
2020/01/23 17:20 ENTO 231720Z 22006KT CAVOK 06/03 Q1013 NOSIG
EKKA - Karup (dan-Afb), Denmark
Distance from station: SSE 209km
Mise à jour: 23/01/2020 18:48
Mist, couvert
Mist, couvert
 Wind from OSO
Vent: OSO 26 km/h
Température: 7°C
Wind Chill: 3°C
Point de rosée: 7°C
Humidité: 100%
Baromètre: 1022 hPa
Résumé: Mist
Clouds: couvert
Visibility: 1 km
Cloud details: couvert 61 m
2020/01/23 17:48 EKKA 231748Z AUTO 25014KT 1400 R09R/P2000N R27L/P2000N BR OVC002/// 07/07 Q1022
 
ENHD - Haugesund/Karmoy, Norway
Distance from station: NO 216km
Mise à jour: 23/01/2020 18:20
nuageux
nuageux
 Wind from SO
Vent: SO 26 km/h
Température: 7°C
Wind Chill: 3°C
Point de rosée: 7°C
Humidité: 100%
Baromètre: 1017 hPa
Clouds: nuageux
Visibility: 8 km
Cloud details: nuageux 122 m
nuageux 457 m
2020/01/23 17:20 ENHD 231720Z 23014KT 8000 BKN004 BKN015 07/07 Q1017 RERA
ENRY - Rygge (nor-Afb), Norway
Distance from station: NE 216km
Mise à jour: 23/01/2020 18:20
clair
clair
 Wind from S
Vent: S 11 km/h
Température: 5°C
Wind Chill: 2°C
Point de rosée: 4°C
Humidité: 93%
Baromètre: 1013 hPa
Résumé: clair
Visibility: greater than 10 km
2020/01/23 17:20 ENRY 231720Z 18006KT CAVOK 05/04 Q1013
 
ESGP - Goteborg/Save (a, Sweden
Distance from station: E 230km
Mise à jour: 02/01/2017 11:20
NOT Current
clair
clair
 Wind from calm
Vent: calme
Température: -2°C
Point de rosée: -4°C
Humidité: 86%
Baromètre: 1012 hPa
Clouds: clair
Visibility: 10 km
2017/01/02 10:20 ESGP 021020Z AUTO 00000KT 9999 NCD M02/M04 Q1012
EKVJ - Stauning Airport, Denmark
Distance from station: S 233km
Mise à jour: 23/01/2020 15:50
NOT Current
Light drizzle, Fog, couvert
Light drizzle, Fog, couvert
 Wind from OSO
Vent: OSO 22 km/h
Température: 6°C
Wind Chill: 2°C
Point de rosée: 6°C
Humidité: 100%
Baromètre: 1027 hPa
Résumé: Light drizzle, Fog
Clouds: couvert
Visibility: 0 km
Cloud details: couvert 61 m
2020/01/23 14:50 EKVJ 231450Z 24012KT 0300 -DZ FG VV002 06/06 Q1027
 
ENSO - Stord/Soerstokke, Norway
Distance from station: NO 246km
Mise à jour: 23/01/2020 17:50
nuageux
nuageux
 Wind from OSO
Vent: OSO 20 km/h
Température: 7°C
Wind Chill: 4°C
Point de rosée: 7°C
Humidité: 100%
Baromètre: 1017 hPa
Clouds: nuageux
Visibility: 10 km
Cloud details: Few Clouds 183 m
nuageux 274 m
2020/01/23 16:50 ENSO 231650Z 24011KT 9999 FEW006 BKN009 07/07 Q1017
EKAH - Tirstrup (civ/Mi, Denmark
Distance from station: SE 252km
Mise à jour: 23/01/2020 18:20
couvert
couvert
 Wind from OSO
Vent: OSO 17 km/h
Température: 8°C
Wind Chill: 5°C
Point de rosée: 7°C
Humidité: 93%
Baromètre: 1023 hPa
Clouds: couvert
Visibility: 10 km
Cloud details: couvert 152 m
2020/01/23 17:20 EKAH 231720Z AUTO 24009KT 190V270 9999NDV OVC005/// 08/07 Q1023
 
ESGT - Trollhattan (pvt, Sweden
Distance from station: E 255km
Mise à jour: 23/01/2020 18:20
nuageux
nuageux
 Wind from SO
Vent: SO 22 km/h
Température: 8°C
Wind Chill: 4°C
Point de rosée: 6°C
Humidité: 87%
Baromètre: 1016 hPa
Clouds: nuageux
Visibility: 10 km
Cloud details: nuageux 274 m
2020/01/23 17:20 ESGT 231720Z 23012KT 9999 BKN009 08/06 Q1016
ESGG - Goteborg/Landvet, Sweden
Distance from station: E 257km
Mise à jour: 23/01/2020 18:20
Mist, couvert
Mist, couvert
 Wind from OSO
Vent: OSO 24 km/h
Température: 6°C
Wind Chill: 2°C
Point de rosée: 6°C
Humidité: 100%
Baromètre: 1018 hPa
Résumé: Mist
Clouds: couvert
Visibility: 3 km
Cloud details: couvert 91 m
2020/01/23 17:20 ESGG 231720Z 24013KT 3000 BR VV003 06/06 Q1018 R21/29//95
 
EKBI - Billund Airport, Denmark
Distance from station: SSE 269km
Mise à jour: 23/01/2020 18:20
pluie légère, Fog, couvert
pluie légère, Fog, couvert
 Wind from SO
Vent: SO 15 km/h
Température: 6°C
Wind Chill: 3°C
Point de rosée: 6°C
Humidité: 100%
Baromètre: 1024 hPa
Résumé: pluie légère, Fog
Clouds: couvert
Visibility: 1 km
Cloud details: couvert 91 m
2020/01/23 17:20 EKBI 231720Z AUTO 23008KT 200V260 0600 R09/P1500U R27/P1500U -RA FG VV003 06/06 Q1024
EKHN - Horns Rev B Heli, Denmark
Distance from station: S 274km
Mise à jour: 09/08/2016 14:20
NOT Current
Few Clouds
Few Clouds
 Wind from ONO
Vent: ONO 50 km/h, Rafale: 72 km/h
Température: 14°C
Point de rosée: 10°C
Humidité: 77%
Baromètre: 1018 hPa
Clouds: Few Clouds
Visibility: 10 km
Cloud details: Few Clouds 1158 m
Few Clouds 2438 m
2016/08/09 12:20 EKHN 091220Z AUTO 29027G39KT 270V340 9999NDV FEW038/// FEW080/// 14/10 Q1018
 
ESIB - Satenas (swe-Afb, Sweden
Distance from station: E 277km
Mise à jour: 23/01/2020 18:20
nuageux
nuageux
 Wind from OSO
Vent: OSO 30 km/h
Température: 7°C
Wind Chill: 3°C
Point de rosée: 7°C
Humidité: 100%
Baromètre: 1015 hPa
Clouds: nuageux
Visibility: 10 km
Cloud details: Few Clouds 244 m
nuageux 305 m
2020/01/23 17:20 ESIB 231720Z 25016KT 9999 FEW008 BKN010 07/07 Q1015
EKHR - Horns Rev B Heli, Denmark
Distance from station: S 282km
Mise à jour: 04/10/2016 06:20
NOT Current
clair
clair
 Wind from E
Vent: E 4 km/h
Température: 11°C
Point de rosée: -49°C
Humidité: 0%
Baromètre: 1038 hPa
Clouds: clair
Visibility: 10 km
2016/10/04 04:20 EKHR 040420Z AUTO 08002KT 9999NDV NCD 11/M49 Q1038